Time;durP1;ratioP1;P1;durP2;ratioP2;P2;SDS_P1;SDS_P2;PMS_P1;PMS_P2;Temp;Humidity;BMP_temperature;BMP_pressure;BME280_temperature;BME280_humidity;BME280_pressure;Samples;Min_cycle;Max_cycle;Signal;HPM_P1;HPM_P2
2022/11/08 00:01:40;;;;;;;502.20;472.13;;;6.30;35.20;;;;;;5075506;28;20492;-69
2022/11/08 00:04:09;;;;;;;555.47;523.50;;;6.30;35.70;;;;;;5074847;28;20507;-69
2022/11/08 00:14:48;;;;;;;421.17;396.03;;;6.10;36.30;;;;;;5075375;28;20464;-69
2022/11/08 00:17:19;;;;;;;494.90;468.47;;;6.10;36.90;;;;;;5057233;28;20423;-70
2022/11/08 00:19:44;;;;;;;461.80;433.47;;;6.00;37.20;;;;;;5056817;28;20899;-70
2022/11/08 00:22:11;;;;;;;471.70;445.63;;;6.00;37.50;;;;;;5056829;28;20451;-69
2022/11/08 00:24:37;;;;;;;660.30;620.93;;;6.00;36.90;;;;;;5075376;28;20546;-68
2022/11/08 00:27:05;;;;;;;432.33;409.23;;;6.00;37.10;;;;;;5057510;28;20424;-69
2022/11/08 00:29:33;;;;;;;616.20;579.07;;;6.00;36.90;;;;;;5075271;28;20423;-69
2022/11/08 00:31:59;;;;;;;618.10;582.97;;;5.90;36.70;;;;;;5074706;28;20408;-68
2022/11/08 00:34:24;;;;;;;586.07;551.50;;;5.80;37.60;;;;;;5074782;28;20826;-69
2022/11/08 00:36:52;;;;;;;399.80;375.17;;;5.90;38.30;;;;;;5075067;28;20166;-70
2022/11/08 00:39:18;;;;;;;666.67;627.47;;;5.90;38.00;;;;;;5074595;28;20223;-69
2022/11/08 00:41:44;;;;;;;402.33;376.70;;;5.90;37.50;;;;;;5074281;28;20799;-70
2022/11/08 00:44:10;;;;;;;592.60;558.57;;;6.00;39.00;;;;;;5074466;28;20415;-70
2022/11/08 00:46:36;;;;;;;438.77;413.87;;;6.00;38.10;;;;;;5074414;28;20666;-69
2022/11/08 00:49:02;;;;;;;613.57;580.20;;;5.90;38.60;;;;;;5056301;28;20424;-69
2022/11/08 00:51:28;;;;;;;251.67;234.13;;;5.90;37.50;;;;;;5056335;28;20436;-70
2022/11/08 00:53:53;;;;;;;613.67;576.87;;;5.80;38.80;;;;;;5073961;28;20463;-68
2022/11/08 00:56:19;;;;;;;501.70;472.47;;;5.70;38.40;;;;;;5074070;28;20170;-69
2022/11/08 00:58:44;;;;;;;587.33;554.10;;;5.60;38.70;;;;;;5074277;28;20256;-69
2022/11/08 01:01:15;;;;;;;670.60;627.70;;;5.60;38.60;;;;;;5074151;28;20194;-69
2022/11/08 01:03:41;;;;;;;699.90;658.27;;;5.50;38.80;;;;;;5055060;28;20183;-69
2022/11/08 01:06:09;;;;;;;452.80;427.60;;;5.50;39.80;;;;;;5056111;28;20424;-69
2022/11/08 01:08:34;;;;;;;436.63;410.37;;;5.50;39.20;;;;;;5074037;28;20435;-69
2022/11/08 01:11:04;;;;;;;603.97;567.50;;;5.50;39.20;;;;;;5073813;28;20443;-70
2022/11/08 01:13:29;;;;;;;500.17;471.17;;;5.50;40.30;;;;;;5073760;28;20467;-69
2022/11/08 01:15:55;;;;;;;529.63;499.73;;;5.50;39.80;;;;;;5073955;28;20416;-69
2022/11/08 01:18:21;;;;;;;693.47;650.83;;;5.40;39.40;;;;;;5055850;28;20235;-69
2022/11/08 01:20:48;;;;;;;526.77;494.80;;;5.50;41.20;;;;;;5073663;28;20219;-69
2022/11/08 01:23:16;;;;;;;441.43;415.90;;;5.50;40.00;;;;;;5073534;28;20188;-70
2022/11/08 01:25:43;;;;;;;427.13;400.60;;;5.50;40.10;;;;;;5073778;28;20430;-70
2022/11/08 01:28:10;;;;;;;352.57;331.40;;;5.50;41.00;;;;;;5055845;28;20946;-70
2022/11/08 01:30:37;;;;;;;499.37;467.33;;;5.50;40.20;;;;;;5073642;28;20440;-70
2022/11/08 01:33:04;;;;;;;499.30;468.57;;;5.50;40.00;;;;;;5073470;28;20966;-69
2022/11/08 01:35:33;;;;;;;639.87;601.37;;;5.40;41.20;;;;;;5073577;28;20465;-69
2022/11/08 01:37:59;;;;;;;631.23;593.93;;;5.50;42.20;;;;;;5055766;28;20422;-69
2022/11/08 01:40:26;;;;;;;483.77;456.90;;;5.40;42.60;;;;;;5073544;28;20428;-70
2022/11/08 01:42:52;;;;;;;379.03;354.73;;;5.40;41.70;;;;;;5073254;28;20444;-70
2022/11/08 01:45:55;;;;;;;686.83;644.00;;;5.40;43.50;;;;;;5073571;28;20416;-69
2022/11/08 01:48:23;;;;;;;197.77;183.30;;;5.40;42.70;;;;;;5073316;28;20750;-70
2022/11/08 01:50:50;;;;;;;598.80;561.33;;;5.40;42.80;;;;;;5073351;28;20795;-70
2022/11/08 01:53:16;;;;;;;582.73;549.83;;;5.40;42.60;;;;;;5072801;28;20456;-69
2022/11/08 01:55:42;;;;;;;424.83;400.20;;;5.40;42.40;;;;;;5073261;28;20498;-69
2022/11/08 01:58:15;;;;;;;454.40;425.40;;;5.40;42.50;;;;;;5055120;28;20511;-69
2022/11/08 02:00:41;;;;;;;485.90;458.67;;;5.40;42.00;;;;;;5073074;28;20212;-70
2022/11/08 02:03:10;;;;;;;376.97;352.50;;;5.40;42.40;;;;;;5072656;28;20443;-70
2022/11/08 02:05:37;;;;;;;517.07;483.23;;;5.30;41.90;;;;;;5073049;28;20215;-69
2022/11/08 02:08:08;;;;;;;318.30;298.30;;;5.30;41.70;;;;;;5072801;28;20454;-69
2022/11/08 02:10:40;;;;;;;344.40;321.27;;;5.30;42.60;;;;;;5072942;28;20450;-69
2022/11/08 02:13:16;;;;;;;537.27;506.90;;;5.30;42.20;;;;;;5072895;28;20484;-69
2022/11/08 02:15:42;;;;;;;284.10;264.57;;;5.20;42.80;;;;;;5054758;28;20991;-69
2022/11/08 02:18:08;;;;;;;483.63;456.53;;;5.30;43.40;;;;;;5072746;28;20508;-69
2022/11/08 02:20:34;;;;;;;262.53;245.00;;;5.20;42.00;;;;;;5054446;28;20456;-69
2022/11/08 02:23:14;;;;;;;580.63;543.67;;;5.20;43.40;;;;;;5072481;28;20416;-69
2022/11/08 02:25:39;;;;;;;663.63;621.03;;;5.10;42.50;;;;;;5072757;28;20192;-70
2022/11/08 02:28:05;;;;;;;512.10;483.10;;;5.10;43.20;;;;;;5072404;28;20917;-69
2022/11/08 02:30:32;;;;;;;413.63;388.50;;;5.10;43.60;;;;;;5072645;28;20205;-69
2022/11/08 02:32:58;;;;;;;551.73;518.07;;;5.10;42.90;;;;;;5072088;28;20205;-70
2022/11/08 02:35:24;;;;;;;429.43;402.07;;;5.00;42.50;;;;;;5072726;28;20469;-70
2022/11/08 02:37:50;;;;;;;544.97;510.20;;;5.10;43.30;;;;;;5072527;28;20181;-69
2022/11/08 02:40:15;;;;;;;465.13;436.47;;;5.10;43.30;;;;;;5054551;28;20767;-70
2022/11/08 02:42:41;;;;;;;357.87;333.70;;;5.00;42.50;;;;;;5071982;28;20258;-69
2022/11/08 02:45:08;;;;;;;583.57;548.10;;;5.00;42.30;;;;;;5072363;28;20564;-68
2022/11/08 02:47:33;;;;;;;596.67;561.57;;;5.00;43.20;;;;;;5054599;28;20177;-69
2022/11/08 02:49:59;;;;;;;461.90;434.70;;;5.00;43.20;;;;;;5054286;28;20543;-69
2022/11/08 02:52:24;;;;;;;423.40;397.23;;;5.10;43.30;;;;;;5054201;28;20533;-69
2022/11/08 02:54:50;;;;;;;577.80;542.13;;;5.10;41.20;;;;;;5072188;28;20258;-68
2022/11/08 02:57:15;;;;;;;608.60;572.73;;;5.00;41.80;;;;;;5072003;28;20184;-69
2022/11/08 02:59:41;;;;;;;434.10;409.63;;;4.90;41.70;;;;;;5072014;28;20208;-69
2022/11/08 03:02:07;;;;;;;611.17;573.90;;;4.90;43.10;;;;;;5071938;28;20202;-69
2022/11/08 03:04:32;;;;;;;433.93;406.30;;;4.90;41.30;;;;;;5072182;28;20616;-70
2022/11/08 03:06:58;;;;;;;477.23;448.60;;;4.80;41.70;;;;;;5054030;28;20187;-69
2022/11/08 03:09:25;;;;;;;486.77;457.30;;;4.70;42.80;;;;;;5072069;28;20178;-70
2022/11/08 03:11:51;;;;;;;440.10;413.43;;;4.70;42.10;;;;;;5071712;28;20204;-69
2022/11/08 03:14:17;;;;;;;580.33;544.53;;;4.70;41.20;;;;;;5071954;28;20463;-72
2022/11/08 03:16:42;;;;;;;320.30;300.03;;;4.70;40.50;;;;;;5054600;28;20416;-71
2022/11/08 03:19:10;;;;;;;583.47;547.57;;;4.50;40.70;;;;;;5076003;28;20262;-71
2022/11/08 03:21:36;;;;;;;547.53;513.83;;;4.40;40.90;;;;;;5056199;28;20222;-71
2022/11/08 03:24:03;;;;;;;324.53;304.47;;;4.40;40.90;;;;;;5054268;28;20557;-71
2022/11/08 03:26:29;;;;;;;637.30;597.33;;;4.30;41.50;;;;;;5071298;28;20780;-71
2022/11/08 03:28:55;;;;;;;354.63;331.17;;;4.30;41.70;;;;;;5071863;28;20442;-71
2022/11/08 03:31:21;;;;;;;515.13;483.03;;;4.30;41.50;;;;;;5071709;28;20197;-71
2022/11/08 03:33:46;;;;;;;482.33;451.33;;;4.20;40.60;;;;;;5071952;28;20723;-71
2022/11/08 03:36:12;;;;;;;654.33;610.57;;;4.10;41.20;;;;;;5054896;28;20243;-71
2022/11/08 03:38:37;;;;;;;723.90;676.00;;;4.10;42.00;;;;;;5055355;28;20167;-71
2022/11/08 03:41:03;;;;;;;534.80;501.10;;;4.10;42.40;;;;;;5073199;28;20195;-71
2022/11/08 03:43:29;;;;;;;340.60;318.27;;;4.10;42.50;;;;;;5071895;28;20652;-71
2022/11/08 03:45:54;;;;;;;444.13;416.93;;;4.10;42.40;;;;;;5072096;28;20185;-71
2022/11/08 03:48:22;;;;;;;580.17;546.97;;;4.10;42.40;;;;;;5071741;28;20177;-71
2022/11/08 03:50:48;;;;;;;349.13;326.85;;;4.20;42.50;;;;;;5071601;28;20697;-71
2022/11/08 03:53:14;;;;;;;399.33;374.92;;;4.20;42.50;;;;;;5071335;28;20346;-71
2022/11/08 03:55:40;;;;;;;509.80;478.57;;;4.10;42.50;;;;;;5071670;28;20681;-71
2022/11/08 03:58:05;;;;;;;302.80;282.90;;;4.00;42.30;;;;;;5071624;28;20264;-71
2022/11/08 04:00:31;;;;;;;333.33;311.77;;;4.00;43.90;;;;;;5071711;28;20216;-70
2022/11/08 04:03:02;;;;;;;582.63;545.60;;;4.00;43.00;;;;;;5053424;28;20186;-70
2022/11/08 04:05:27;;;;;;;613.92;574.83;;;4.00;43.30;;;;;;5071435;28;20561;-71
2022/11/08 04:07:53;;;;;;;585.97;547.73;;;3.90;44.30;;;;;;5070400;28;20315;-71
2022/11/08 04:10:19;;;;;;;561.90;528.03;;;3.90;42.80;;;;;;5053314;28;20285;-71
2022/11/08 04:15:29;;;;;;;481.38;453.02;;;3.90;44.20;;;;;;5071145;28;20675;-71
2022/11/08 04:23:26;;;;;;;653.53;610.80;;;3.80;44.30;;;;;;5071007;28;20191;-71
2022/11/08 04:25:57;;;;;;;543.70;510.00;;;3.80;44.50;;;;;;5071098;28;20170;-71
2022/11/08 04:28:25;;;;;;;475.35;445.13;;;3.70;43.50;;;;;;5072714;28;20254;-72
2022/11/08 04:30:55;;;;;;;580.50;544.00;;;3.80;44.50;;;;;;5057260;28;20208;-71
2022/11/08 04:33:22;;;;;;;287.77;268.90;;;3.70;43.60;;;;;;5055283;28;20210;-71
2022/11/08 04:35:48;;;;;;;616.90;578.33;;;3.70;44.30;;;;;;5055515;28;20175;-71
2022/11/08 04:38:14;;;;;;;709.35;664.95;;;3.80;42.90;;;;;;5074049;28;20232;-71
2022/11/08 04:40:39;;;;;;;375.70;350.50;;;3.80;44.60;;;;;;5077496;28;20192;-71
2022/11/08 04:43:05;;;;;;;400.83;376.03;;;3.90;44.40;;;;;;5058113;28;20184;-71
2022/11/08 04:45:30;;;;;;;366.27;341.10;;;3.90;43.20;;;;;;5076657;28;20193;-70
2022/11/08 04:47:56;;;;;;;421.83;397.20;;;4.00;44.10;;;;;;5076780;28;20184;-70
2022/11/08 04:50:21;;;;;;;625.53;589.03;;;4.00;42.80;;;;;;5076878;28;20194;-70
2022/11/08 04:52:52;;;;;;;300.67;280.60;;;4.00;42.90;;;;;;5058896;28;20178;-71
2022/11/08 04:55:19;;;;;;;607.72;568.47;;;3.90;42.50;;;;;;5077426;28;20228;-71
2022/11/08 04:57:45;;;;;;;509.33;479.92;;;3.90;43.80;;;;;;5078700;28;20236;-71
2022/11/08 05:00:11;;;;;;;680.93;638.53;;;3.90;43.50;;;;;;5077390;28;20278;-71
2022/11/08 05:02:36;;;;;;;352.90;329.65;;;3.90;43.90;;;;;;5078018;28;20422;-71
2022/11/08 05:05:02;;;;;;;701.63;655.23;;;3.90;44.10;;;;;;5078561;28;20176;-71
2022/11/08 05:07:28;;;;;;;589.20;549.97;;;3.90;45.10;;;;;;5078653;28;20181;-71
2022/11/08 05:09:54;;;;;;;277.40;258.47;;;4.00;45.00;;;;;;5078677;28;20205;-71
2022/11/08 05:12:20;;;;;;;563.53;529.22;;;4.10;44.90;;;;;;5076784;28;20433;-70
2022/11/08 05:14:46;;;;;;;491.52;459.23;;;4.20;43.50;;;;;;5076071;28;20196;-71
2022/11/08 05:17:12;;;;;;;322.97;302.77;;;4.20;43.10;;;;;;5076210;28;20179;-70
2022/11/08 05:25:06;;;;;;;519.53;489.33;;;4.10;44.20;;;;;;5093937;28;20204;-73
2022/11/08 05:27:33;;;;;;;613.43;575.57;;;4.20;43.60;;;;;;5093891;28;20179;-73
2022/11/08 05:29:58;;;;;;;640.42;600.45;;;4.10;43.30;;;;;;5075757;28;20500;-73
2022/11/08 05:32:24;;;;;;;684.37;642.50;;;4.20;44.20;;;;;;5093441;28;20192;-73
2022/11/08 05:34:49;;;;;;;310.20;288.97;;;4.20;44.20;;;;;;5092474;28;20207;-73
2022/11/08 05:37:15;;;;;;;487.53;455.20;;;4.30;44.20;;;;;;5092656;28;20182;-73
2022/11/08 05:39:40;;;;;;;627.10;586.93;;;4.30;44.70;;;;;;5092398;28;20219;-73
2022/11/08 05:42:06;;;;;;;327.97;306.43;;;4.30;43.10;;;;;;5092371;28;20208;-73
2022/11/08 05:44:31;;;;;;;622.50;583.03;;;4.30;44.20;;;;;;5093620;28;20173;-73
2022/11/08 05:46:57;;;;;;;662.73;621.30;;;4.40;42.90;;;;;;5093478;28;20175;-73
2022/11/08 05:49:22;;;;;;;533.30;500.40;;;4.30;42.90;;;;;;5093035;28;20200;-73
2022/11/08 05:51:48;;;;;;;512.13;482.20;;;4.20;42.50;;;;;;5091846;28;20244;-73
2022/11/08 05:54:14;;;;;;;432.30;404.27;;;4.10;43.90;;;;;;5093350;28;20210;-73
2022/11/08 05:56:39;;;;;;;405.87;381.17;;;4.10;42.50;;;;;;5093343;28;20172;-74
2022/11/08 05:59:05;;;;;;;350.60;327.93;;;4.10;43.00;;;;;;5092022;28;20178;-74
2022/11/08 06:01:30;;;;;;;665.67;623.93;;;4.00;44.10;;;;;;5093074;28;20266;-73
2022/11/08 06:03:56;;;;;;;609.67;570.53;;;3.90;42.80;;;;;;5092994;28;20782;-73
2022/11/08 06:06:22;;;;;;;537.60;504.67;;;3.90;44.00;;;;;;5093129;28;20181;-73
2022/11/08 06:08:48;;;;;;;719.78;671.42;;;3.90;43.10;;;;;;5093171;28;20213;-74
2022/11/08 06:11:17;;;;;;;582.35;542.50;;;3.90;44.50;;;;;;5092985;28;20199;-74
2022/11/08 06:13:43;;;;;;;597.53;560.08;;;4.00;43.40;;;;;;5092685;28;20203;-73
2022/11/08 06:16:11;;;;;;;437.23;410.70;;;4.00;42.20;;;;;;5091639;28;20668;-73
2022/11/08 06:18:37;;;;;;;461.48;429.25;;;3.90;42.20;;;;;;5091523;28;20672;-74
2022/11/08 06:21:05;;;;;;;511.67;479.98;;;3.80;43.30;;;;;;5092906;28;20686;-73
2022/11/08 06:23:31;;;;;;;467.23;438.10;;;3.80;42.20;;;;;;5091167;28;20188;-73
2022/11/08 06:25:58;;;;;;;192.60;176.43;;;3.70;42.10;;;;;;5091447;28;20182;-73
2022/11/08 06:28:23;;;;;;;628.50;586.97;;;3.70;44.40;;;;;;5092967;28;20812;-73
2022/11/08 06:30:49;;;;;;;600.60;562.33;;;3.80;43.00;;;;;;5091345;28;20195;-73
2022/11/08 06:33:15;;;;;;;416.63;391.00;;;3.80;42.90;;;;;;5091132;28;20193;-72
2022/11/08 06:35:41;;;;;;;499.07;467.17;;;3.70;42.10;;;;;;5092573;28;20175;-74
2022/11/08 06:38:07;;;;;;;573.67;536.63;;;3.70;43.00;;;;;;5092902;28;20181;-73
2022/11/08 06:40:32;;;;;;;563.37;526.70;;;3.70;42.50;;;;;;5092482;28;20204;-73
2022/11/08 06:42:59;;;;;;;448.13;420.10;;;3.70;43.30;;;;;;5092462;28;20167;-73
2022/11/08 06:45:25;;;;;;;620.70;580.90;;;3.80;43.70;;;;;;5091204;28;20408;-73
2022/11/08 06:48:02;;;;;;;514.28;482.50;;;3.80;44.10;;;;;;5092420;28;20255;-73
2022/11/08 06:50:29;;;;;;;737.22;686.50;;;3.90;44.30;;;;;;5092294;28;20560;-74
2022/11/08 06:53:00;;;;;;;491.90;459.10;;;4.00;45.00;;;;;;5090623;28;20173;-73
2022/11/08 06:55:26;;;;;;;665.95;622.33;;;4.10;44.10;;;;;;5092518;28;20182;-73
2022/11/08 06:57:52;;;;;;;548.30;514.03;;;4.20;44.10;;;;;;5092306;28;20168;-73
2022/11/08 07:00:18;;;;;;;424.90;398.73;;;4.20;42.70;;;;;;5090885;28;20703;-74
2022/11/08 07:02:44;;;;;;;373.73;350.42;;;4.30;43.70;;;;;;5091397;28;20181;-73
2022/11/08 07:05:11;;;;;;;447.13;419.47;;;4.40;42.90;;;;;;5090944;28;20653;-73
2022/11/08 07:07:37;;;;;;;689.22;645.13;;;4.50;42.80;;;;;;5091003;28;20185;-73
2022/11/08 07:10:03;;;;;;;569.67;533.85;;;4.50;41.60;;;;;;5092225;28;20176;-73
2022/11/08 07:12:29;;;;;;;473.23;444.63;;;4.60;42.30;;;;;;5090496;28;20207;-73
2022/11/08 07:14:54;;;;;;;496.43;466.37;;;4.70;41.70;;;;;;5090909;28;20582;-73
2022/11/08 07:17:20;;;;;;;270.90;251.67;;;4.70;42.00;;;;;;5090912;28;20183;-73
2022/11/08 07:19:45;;;;;;;339.93;318.17;;;4.70;41.60;;;;;;5090759;28;20401;-73
2022/11/08 07:22:11;;;;;;;481.80;454.60;;;4.80;39.70;;;;;;5091626;28;20261;-73
2022/11/08 07:24:37;;;;;;;692.87;645.03;;;4.80;41.50;;;;;;5090717;28;20189;-73
2022/11/08 07:27:02;;;;;;;354.23;331.17;;;4.80;41.40;;;;;;5092602;28;20547;-73
2022/11/08 07:29:28;;;;;;;573.70;537.87;;;5.00;41.70;;;;;;5090658;28;20279;-73
2022/11/08 07:31:53;;;;;;;528.40;492.57;;;5.10;40.80;;;;;;5090278;28;20578;-72
2022/11/08 07:34:19;;;;;;;717.53;670.67;;;5.40;40.70;;;;;;5089995;28;20223;-74
2022/11/08 07:36:45;;;;;;;670.73;628.80;;;5.50;41.00;;;;;;5090594;28;20664;-74
2022/11/08 07:39:11;;;;;;;395.63;371.60;;;5.60;41.50;;;;;;5091868;28;20410;-74
2022/11/08 07:41:36;;;;;;;465.50;438.27;;;5.80;40.50;;;;;;5090430;28;20443;-73
2022/11/08 07:44:02;;;;;;;447.00;420.80;;;5.80;39.30;;;;;;5091534;28;20263;-73
2022/11/08 07:46:27;;;;;;;643.77;606.00;;;5.90;40.10;;;;;;5091694;28;20196;-74
2022/11/08 07:48:53;;;;;;;535.40;501.57;;;6.00;41.20;;;;;;5091992;28;20240;-74
2022/11/08 07:51:18;;;;;;;750.30;701.80;;;6.10;41.40;;;;;;5092737;28;20197;-73
2022/11/08 07:53:44;;;;;;;643.03;604.63;;;6.30;40.00;;;;;;5091209;28;20241;-73
2022/11/08 07:56:10;;;;;;;698.70;656.23;;;6.40;39.80;;;;;;5090277;28;20177;-73
2022/11/08 07:58:35;;;;;;;150.10;137.60;;;6.40;39.30;;;;;;5090267;28;20184;-73
2022/11/08 08:01:02;;;;;;;438.33;409.23;;;6.50;39.30;;;;;;5091510;28;20427;-73
2022/11/08 08:03:29;;;;;;;458.33;430.77;;;6.70;37.70;;;;;;5091184;28;20563;-73
2022/11/08 08:05:55;;;;;;;444.53;415.07;;;6.80;38.60;;;;;;5090075;28;20415;-73
2022/11/08 08:08:21;;;;;;;756.13;710.23;;;6.90;37.80;;;;;;5090350;28;20420;-73
2022/11/08 08:10:46;;;;;;;385.73;361.20;;;7.10;36.90;;;;;;5091374;28;20443;-73
2022/11/08 08:13:12;;;;;;;426.33;399.40;;;7.20;37.80;;;;;;5093052;28;20292;-72
2022/11/08 08:15:38;;;;;;;385.50;362.50;;;7.20;37.80;;;;;;5095406;28;20257;-70
2022/11/08 08:18:06;;;;;;;382.97;358.73;;;7.20;36.00;;;;;;5095111;28;20175;-71
2022/11/08 08:20:32;;;;;;;402.97;376.27;;;7.20;34.70;;;;;;5094900;28;20441;-72
2022/11/08 08:22:58;;;;;;;406.97;380.87;;;7.20;33.40;;;;;;5094983;28;20411;-72
2022/11/08 08:25:25;;;;;;;503.53;470.13;;;7.00;31.10;;;;;;5095245;28;20230;-71
2022/11/08 08:27:53;;;;;;;339.97;319.47;;;6.70;30.40;;;;;;5093744;28;20416;-72
2022/11/08 08:30:20;;;;;;;368.00;344.80;;;6.60;31.60;;;;;;5094989;28;20426;-72
2022/11/08 08:32:46;;;;;;;520.80;490.40;;;6.40;32.00;;;;;;5093732;28;20407;-72
2022/11/08 08:35:12;;;;;;;496.37;466.10;;;6.40;32.30;;;;;;5095232;28;20411;-71
2022/11/08 08:37:38;;;;;;;404.07;377.17;;;6.50;32.20;;;;;;5094922;28;20438;-69
2022/11/08 08:40:05;;;;;;;357.63;334.90;;;6.60;31.40;;;;;;5095957;28;20771;-72
2022/11/08 08:42:32;;;;;;;460.87;430.70;;;6.70;32.80;;;;;;5099136;28;20189;-76
2022/11/08 08:44:58;;;;;;;476.57;445.87;;;6.90;32.30;;;;;;5094876;28;20441;-72
2022/11/08 08:47:23;;;;;;;312.23;291.03;;;7.10;33.60;;;;;;5093418;28;20510;-72
2022/11/08 08:49:49;;;;;;;406.77;380.10;;;7.40;31.00;;;;;;5094774;28;20183;-73
2022/11/08 08:52:14;;;;;;;680.67;640.00;;;7.70;30.00;;;;;;5094506;28;20710;-70
2022/11/08 08:54:40;;;;;;;618.00;581.73;;;7.90;30.50;;;;;;5093653;28;20231;-70
2022/11/08 08:57:05;;;;;;;682.30;638.47;;;8.20;30.50;;;;;;5094503;28;20194;-73
2022/11/08 08:59:31;;;;;;;343.17;318.77;;;8.40;29.30;;;;;;5093262;28;20179;-74
2022/11/08 09:01:58;;;;;;;512.73;481.07;;;8.60;27.30;;;;;;5094120;28;20681;-73
2022/11/08 09:04:24;;;;;;;809.70;761.53;;;8.80;28.00;;;;;;5094437;28;20176;-73
2022/11/08 09:06:49;;;;;;;386.57;360.47;;;9.10;27.20;;;;;;5094380;28;20485;-73
2022/11/08 09:09:15;;;;;;;550.23;514.87;;;9.40;27.10;;;;;;5094476;28;20184;-73
2022/11/08 09:11:41;;;;;;;748.77;700.63;;;9.70;25.60;;;;;;5094107;28;20201;-73
2022/11/08 09:14:06;;;;;;;525.77;489.43;;;9.90;24.90;;;;;;5092669;28;20691;-73
2022/11/08 09:16:32;;;;;;;567.30;528.70;;;10.00;22.60;;;;;;5094155;28;20443;-73
2022/11/08 09:18:57;;;;;;;289.80;271.83;;;10.10;21.90;;;;;;5093970;28;20178;-73
2022/11/08 09:21:23;;;;;;;594.00;553.40;;;10.10;22.00;;;;;;5094030;28;20744;-73
2022/11/08 09:23:49;;;;;;;507.43;472.83;;;10.00;21.20;;;;;;5093245;28;20252;-73
2022/11/08 09:26:14;;;;;;;476.83;444.70;;;9.90;21.90;;;;;;5093716;28;20203;-73
2022/11/08 09:28:40;;;;;;;424.33;394.97;;;10.00;20.90;;;;;;5092621;28;20180;-73
2022/11/08 09:31:08;;;;;;;431.73;402.50;;;9.90;22.10;;;;;;5093833;28;20302;-73
2022/11/08 09:33:34;;;;;;;248.70;229.50;;;9.80;22.60;;;;;;5093572;28;20291;-73
2022/11/08 09:36:01;;;;;;;469.33;438.53;;;9.90;23.30;;;;;;5093751;28;20829;-73
2022/11/08 09:38:27;;;;;;;491.23;456.23;;;10.30;22.80;;;;;;5093890;28;20827;-73
2022/11/08 09:41:05;;;;;;;559.03;520.97;;;10.60;22.00;;;;;;5093574;28;20482;-73
2022/11/08 09:43:42;;;;;;;370.73;344.70;;;11.00;20.60;;;;;;5093397;28;20522;-73
2022/11/08 09:46:17;;;;;;;668.03;620.93;;;11.20;19.50;;;;;;5093658;28;20418;-73
2022/11/08 09:48:44;;;;;;;492.87;457.20;;;11.50;18.60;;;;;;5093592;28;20484;-73
2022/11/08 09:51:15;;;;;;;382.40;354.93;;;11.50;18.30;;;;;;5093411;28;20435;-73
2022/11/08 09:53:52;;;;;;;148.53;135.53;;;11.40;18.10;;;;;;5093063;28;20517;-73
2022/11/08 09:56:22;;;;;;;391.53;362.47;;;11.40;18.70;;;;;;5093360;28;20412;-73
2022/11/08 09:59:02;;;;;;;442.83;410.57;;;11.50;17.80;;;;;;5092115;28;20934;-73
2022/11/08 10:01:33;;;;;;;448.20;415.20;;;11.70;18.30;;;;;;5093278;28;20425;-73
2022/11/08 10:04:14;;;;;;;434.53;402.93;;;11.90;18.20;;;;;;5093004;28;20422;-73
2022/11/08 10:07:04;;;;;;;179.93;164.77;;;12.20;17.40;;;;;;5093331;28;20416;-73
2022/11/08 10:09:42;;;;;;;400.50;371.23;;;12.50;16.90;;;;;;5093263;28;20407;-73
2022/11/08 10:12:23;;;;;;;371.50;345.93;;;12.90;16.10;;;;;;5092750;28;20437;-73
2022/11/08 10:15:01;;;;;;;370.90;341.10;;;13.30;15.00;;;;;;5092959;28;20452;-73
2022/11/08 10:17:35;;;;;;;407.67;376.00;;;13.50;14.30;;;;;;5093070;28;20921;-73
2022/11/08 10:20:27;;;;;;;453.77;418.70;;;13.70;13.90;;;;;;5092836;28;20432;-73
2022/11/08 10:23:23;;;;;;;521.87;483.47;;;13.70;13.40;;;;;;5091315;28;20427;-73
2022/11/08 10:25:54;;;;;;;477.20;443.03;;;13.60;12.80;;;;;;5091591;28;20422;-73
2022/11/08 10:28:25;;;;;;;196.67;180.67;;;13.50;13.30;;;;;;5091595;28;20781;-73
2022/11/08 10:30:52;;;;;;;585.40;543.90;;;13.70;13.40;;;;;;5092789;28;20456;-73
2022/11/08 10:33:41;;;;;;;453.90;420.00;;;13.90;13.20;;;;;;5092339;28;20461;-73
2022/11/08 10:36:37;;;;;;;358.93;332.77;;;14.00;12.40;;;;;;5091342;28;20411;-73
2022/11/08 10:39:15;;;;;;;329.87;305.23;;;13.90;12.40;;;;;;5073680;28;20499;-73
2022/11/08 10:42:08;;;;;;;362.33;336.43;;;14.00;12.70;;;;;;5092330;28;20444;-73
2022/11/08 10:44:35;;;;;;;709.40;656.80;;;14.30;12.60;;;;;;5092527;28;20411;-73
2022/11/08 10:47:10;;;;;;;709.90;657.73;;;14.60;12.10;;;;;;5092423;28;20506;-73
2022/11/08 10:49:39;;;;;;;603.90;560.30;;;14.70;11.40;;;;;;5092488;28;20474;-73
2022/11/08 10:52:11;;;;;;;417.93;389.47;;;14.80;11.30;;;;;;5090708;28;20934;-73
2022/11/08 10:55:04;;;;;;;376.33;349.57;;;15.10;11.00;;;;;;5092387;28;20546;-74
2022/11/08 10:57:43;;;;;;;665.33;616.60;;;15.20;9.90;;;;;;5091044;28;20969;-73
2022/11/08 11:00:30;;;;;;;465.57;433.90;;;15.40;10.10;;;;;;5092341;28;20498;-74
2022/11/08 11:03:01;;;;;;;734.73;676.40;;;15.60;9.10;;;;;;5091806;28;20577;-73
2022/11/08 11:05:35;;;;;;;508.17;468.87;;;15.70;9.10;;;;;;5092274;28;20562;-73
2022/11/08 11:08:12;;;;;;;302.90;278.77;;;15.80;8.80;;;;;;5092102;28;20418;-73
2022/11/08 11:10:40;;;;;;;880.10;808.83;;;15.90;8.70;;;;;;5092088;28;20470;-74
2022/11/08 11:13:25;;;;;;;282.33;259.00;;;16.00;8.50;;;;;;5091673;28;20472;-73
2022/11/08 11:15:55;;;;;;;773.03;707.50;;;16.00;7.90;;;;;;5090589;28;20471;-73
2022/11/08 11:18:34;;;;;;;492.97;455.57;;;15.90;7.60;;;;;;5090542;28;20446;-73
2022/11/08 11:21:17;;;;;;;745.13;682.50;;;16.00;7.20;;;;;;5100708;22;21521;-70
2022/11/08 11:23:50;;;;;;;613.47;571.43;;;16.20;7.20;;;;;;5038155;28;20436;-69
2022/11/08 11:26:26;;;;;;;645.13;601.10;;;16.30;6.60;;;;;;5043637;28;20429;-73
2022/11/08 11:29:04;;;;;;;667.13;611.93;;;16.30;6.80;;;;;;5043396;28;20416;-71
2022/11/08 11:31:40;;;;;;;598.53;553.63;;;16.40;7.00;;;;;;5060485;28;20490;-69
2022/11/08 11:34:18;;;;;;;510.47;473.10;;;16.60;7.30;;;;;;5094133;28;20962;-70
2022/11/08 11:36:51;;;;;;;684.83;630.03;;;16.60;5.50;;;;;;5061492;28;20447;-70
2022/11/08 11:39:58;;;;;;;860.83;789.87;;;16.50;6.00;;;;;;5061685;28;20447;-70
2022/11/08 11:42:27;;;;;;;449.73;412.03;;;16.40;6.60;;;;;;5051374;28;20424;-71
2022/11/08 11:45:07;;;;;;;534.23;494.33;;;16.30;7.00;;;;;;5051855;28;20903;-71
2022/11/08 11:47:46;;;;;;;669.33;619.40;;;16.30;7.50;;;;;;5052511;28;20417;-71
2022/11/08 11:50:36;;;;;;;736.47;682.10;;;16.20;6.70;;;;;;5055481;28;20431;-71
2022/11/08 11:53:32;;;;;;;810.67;747.23;;;16.00;7.60;;;;;;5055333;28;20409;-71
2022/11/08 11:56:13;;;;;;;623.80;577.77;;;15.80;7.10;;;;;;5053355;28;20954;-69
2022/11/08 11:58:59;;;;;;;140.93;128.50;;;15.90;7.30;;;;;;5055111;28;20439;-69
2022/11/08 12:01:46;;;;;;;612.90;562.20;;;16.20;7.00;;;;;;5060181;28;20826;-70
2022/11/08 12:04:14;;;;;;;619.10;572.93;;;16.40;7.30;;;;;;5065474;28;20405;-70
2022/11/08 12:07:00;;;;;;;484.03;446.60;;;16.50;6.00;;;;;;5063374;28;20734;-70
2022/11/08 12:09:52;;;;;;;592.20;544.77;;;16.70;5.90;;;;;;5064472;28;20448;-71
2022/11/08 12:12:33;;;;;;;734.10;676.67;;;16.80;5.70;;;;;;5064121;28;20463;-70
2022/11/08 12:15:26;;;;;;;821.23;754.97;;;16.90;5.40;;;;;;5064175;28;20482;-71
2022/11/08 12:18:12;;;;;;;777.63;715.90;;;16.90;5.40;;;;;;5063797;28;21015;-71
2022/11/08 12:20:47;;;;;;;673.17;622.23;;;16.90;5.40;;;;;;5064406;28;20409;-70
2022/11/08 12:23:38;;;;;;;398.63;369.23;;;16.90;5.40;;;;;;5063588;28;20919;-70
2022/11/08 12:26:16;;;;;;;462.37;428.00;;;16.80;5.30;;;;;;5064161;28;20468;-71
2022/11/08 12:29:19;;;;;;;768.70;709.30;;;16.80;5.40;;;;;;5064285;28;20397;-72
2022/11/08 12:32:25;;;;;;;850.00;782.93;;;16.70;5.60;;;;;;5063771;28;20413;-71
2022/11/08 12:35:20;;;;;;;883.77;814.50;;;16.60;5.60;;;;;;5063994;28;20522;-70
2022/11/08 12:38:00;;;;;;;663.57;612.57;;;16.70;5.60;;;;;;5095803;28;20789;-71
2022/11/08 12:40:53;;;;;;;837.00;772.37;;;16.60;5.20;;;;;;5063694;28;20892;-71
2022/11/08 12:43:50;;;;;;;300.63;277.43;;;16.60;5.20;;;;;;5063392;28;20419;-71
2022/11/08 12:46:17;;;;;;;728.30;676.20;;;16.40;5.10;;;;;;5064522;28;20409;-71
2022/11/08 12:49:20;;;;;;;617.33;571.33;;;16.40;5.10;;;;;;5064359;28;20470;-71
2022/11/08 12:52:18;;;;;;;677.47;625.07;;;16.40;5.10;;;;;;5060919;28;20464;-71